createdAt,value
2022-11-03T00:00:53.540Z,9.8
2022-11-03T00:10:59.570Z,9.8
2022-11-03T00:21:05.656Z,9.8
2022-11-03T00:31:11.673Z,9.8
2022-11-03T00:41:17.749Z,9.7
2022-11-03T00:51:23.747Z,9.7
2022-11-03T01:01:29.926Z,9.7
2022-11-03T01:11:35.859Z,9.7
2022-11-03T01:21:41.937Z,9.7
2022-11-03T01:31:47.933Z,9.7
2022-11-03T01:41:53.998Z,9.7
2022-11-03T01:52:00.044Z,9.6
2022-11-03T02:02:06.299Z,9.6
2022-11-03T02:12:12.116Z,9.6
2022-11-03T02:22:18.216Z,9.6
2022-11-03T02:32:24.240Z,9.6
2022-11-03T02:42:30.296Z,9.6
2022-11-03T02:52:36.338Z,9.6
2022-11-03T03:02:42.402Z,9.5
2022-11-03T03:12:48.415Z,9.5
2022-11-03T03:22:54.489Z,9.5
2022-11-03T03:33:00.520Z,9.5
2022-11-03T03:43:06.574Z,9.5
2022-11-03T03:53:12.590Z,9.5
2022-11-03T04:03:18.673Z,9.5
2022-11-03T04:13:24.705Z,9.5
2022-11-03T04:23:30.775Z,9.6
2022-11-03T04:33:36.791Z,9.6
2022-11-03T04:43:42.877Z,9.6
2022-11-03T04:53:48.902Z,9.6
2022-11-03T05:03:55.004Z,9.6
2022-11-03T05:14:00.978Z,9.7
2022-11-03T05:24:07.112Z,9.8
2022-11-03T05:34:13.089Z,9.9
2022-11-03T05:44:19.163Z,10
2022-11-03T05:54:25.179Z,10.1
2022-11-03T06:04:31.233Z,10.2
2022-11-03T06:14:37.276Z,10.2
2022-11-03T06:24:43.330Z,10.2
2022-11-03T06:34:49.634Z,10.3
2022-11-03T06:44:55.424Z,10.3
2022-11-03T06:55:01.462Z,10.2
2022-11-03T07:05:07.556Z,10.2
2022-11-03T07:15:13.534Z,10.2
2022-11-03T07:25:19.610Z,10.2
2022-11-03T07:35:25.634Z,10.2
2022-11-03T07:45:31.713Z,10.2
2022-11-03T07:55:37.718Z,10.3
2022-11-03T08:05:43.873Z,10.3
2022-11-03T08:15:49.813Z,10.3
2022-11-03T08:25:55.869Z,10.3
2022-11-03T08:36:01.908Z,10.3
2022-11-03T08:46:15.911Z,10.3
2022-11-03T08:56:15.921Z,10.3
2022-11-03T09:06:20.105Z,10.3
2022-11-03T09:16:26.085Z,10.5
2022-11-03T09:26:32.211Z,10.5
2022-11-03T09:36:38.204Z,10.5
2022-11-03T09:46:44.266Z,10.6
2022-11-03T09:56:50.288Z,10
2022-11-03T10:17:04.269Z,9.5
2022-11-03T10:27:10.284Z,9.7
2022-11-03T10:37:16.373Z,9.5
2022-11-03T10:47:22.399Z,9.5
2022-11-03T10:57:28.462Z,9.5
2022-11-03T11:07:34.467Z,9.5
2022-11-03T11:17:40.532Z,9.3
2022-11-03T11:27:46.575Z,9.3
2022-11-03T11:37:52.808Z,9.2
2022-11-03T11:47:58.653Z,9.2
2022-11-03T11:58:04.709Z,9
2022-11-03T12:08:10.740Z,8.8
2022-11-03T12:18:16.808Z,8.9
2022-11-03T12:28:22.850Z,9.1
2022-11-03T12:38:28.910Z,8.8
2022-11-03T12:48:34.932Z,8.8
2022-11-03T12:58:40.995Z,8.8
2022-11-03T13:08:49.141Z,9.7
2022-11-03T13:18:53.105Z,9.3
2022-11-03T13:28:59.130Z,9
2022-11-03T13:39:05.248Z,9
2022-11-03T14:09:23.396Z,9.4
2022-11-03T14:19:37.917Z,9.7
2022-11-03T14:29:35.385Z,9.7
2022-11-03T14:39:41.437Z,9.9
2022-11-03T14:49:47.484Z,10.1
2022-11-03T14:59:53.924Z,10.1
2022-11-03T15:09:59.580Z,10.1
2022-11-03T15:20:05.628Z,10.2
2022-11-03T15:30:11.659Z,10.2
2022-11-03T15:40:17.719Z,10.2
2022-11-03T15:50:23.762Z,10.3
2022-11-03T16:00:29.846Z,10.3
2022-11-03T16:10:35.845Z,10.2
2022-11-03T16:20:41.920Z,10.4
2022-11-03T16:30:53.788Z,10.4
2022-11-03T16:40:53.992Z,10.4
2022-11-03T16:51:00.034Z,10.4
2022-11-03T17:01:06.146Z,10.4
2022-11-03T17:11:12.117Z,10.5
2022-11-03T17:21:18.191Z,10.5
2022-11-03T17:31:24.216Z,10.5
2022-11-03T17:41:30.368Z,10.5
2022-11-03T17:51:36.286Z,10.5
2022-11-03T18:01:42.548Z,10.5
2022-11-03T18:11:48.394Z,10.5
2022-11-03T18:21:54.479Z,10.5
2022-11-03T18:32:00.473Z,10.4
2022-11-03T18:42:06.556Z,10.4
2022-11-03T18:52:12.566Z,10.4
2022-11-03T19:02:18.857Z,10.4
2022-11-03T19:12:24.683Z,10.4
2022-11-03T19:22:30.774Z,10.4
2022-11-03T19:32:36.771Z,10.4
2022-11-03T19:42:42.839Z,10.4
2022-11-03T19:52:48.857Z,10.4
2022-11-03T20:02:54.916Z,10.3
2022-11-03T20:13:00.950Z,10.3
2022-11-03T20:23:07.318Z,10.3
2022-11-03T20:33:13.031Z,10.3
2022-11-03T20:43:19.116Z,10.3
2022-11-03T20:53:26.508Z,10.3
2022-11-03T21:13:38.352Z,10.3
2022-11-03T21:23:44.412Z,10.3
2022-11-03T21:33:50.439Z,10.2
2022-11-03T21:43:56.525Z,10.2
2022-11-03T21:54:02.623Z,10.2
2022-11-03T22:04:08.632Z,10.2
2022-11-03T22:14:14.645Z,10.2
2022-11-03T22:24:20.686Z,10.2
2022-11-03T22:34:26.724Z,10.2
2022-11-03T22:44:32.813Z,10.2
2022-11-03T22:54:38.814Z,10.2
2022-11-03T23:04:44.876Z,10.2
2022-11-03T23:14:50.924Z,10.1
2022-11-03T23:24:56.969Z,10.1
2022-11-03T23:35:02.978Z,10.1
2022-11-03T23:45:09.092Z,10.1
2022-11-03T23:55:15.112Z,10.1
